createdAt,value
2018-08-08T00:02:38.210Z,26.50
2018-08-08T00:07:32.872Z,26.50
2018-08-08T00:12:27.740Z,26.40
2018-08-08T00:17:22.203Z,26.40
2018-08-08T00:22:16.840Z,26.30
2018-08-08T00:27:11.333Z,26.20
2018-08-08T00:32:05.796Z,26.10
2018-08-08T00:37:00.562Z,26.10
2018-08-08T00:41:55.216Z,26.10
2018-08-08T00:46:49.944Z,26.10
2018-08-08T00:51:44.431Z,26.10
2018-08-08T00:56:39.004Z,26.00
2018-08-08T01:01:33.534Z,26.00
2018-08-08T01:06:28.446Z,26.00
2018-08-08T01:11:23.260Z,26.00
2018-08-08T01:16:18.019Z,26.50
2018-08-08T01:21:12.477Z,26.60
2018-08-08T01:26:07.263Z,26.60
2018-08-08T01:31:01.798Z,26.60
2018-08-08T01:35:56.571Z,26.60
2018-08-08T01:40:51.100Z,26.60
2018-08-08T01:45:45.904Z,26.50
2018-08-08T01:50:40.720Z,26.60
2018-08-08T01:55:35.220Z,26.60
2018-08-08T02:00:30.036Z,26.60
2018-08-08T02:05:24.624Z,26.70
2018-08-08T02:10:21.972Z,26.70
2018-08-08T02:15:16.454Z,26.70
2018-08-08T02:20:12.136Z,26.60
2018-08-08T02:25:07.211Z,26.50
2018-08-08T02:30:01.761Z,26.40
2018-08-08T02:34:57.575Z,26.40
2018-08-08T02:39:52.278Z,26.40
2018-08-08T02:44:46.796Z,26.30
2018-08-08T02:49:41.391Z,26.20
2018-08-08T02:59:41.279Z,26.30
2018-08-08T03:04:35.792Z,26.30
2018-08-08T03:09:30.660Z,26.30
2018-08-08T03:14:25.278Z,26.30
2018-08-08T03:19:19.971Z,26.20
2018-08-08T03:24:14.727Z,26.10
2018-08-08T03:29:09.407Z,26.00
2018-08-08T03:34:03.906Z,26.00
2018-08-08T03:38:58.484Z,26.00
2018-08-08T03:43:53.172Z,25.90
2018-08-08T03:48:47.623Z,25.80
2018-08-08T03:53:42.102Z,25.90
2018-08-08T03:58:36.752Z,25.80
2018-08-08T04:03:31.410Z,25.80
2018-08-08T04:08:25.982Z,25.60
2018-08-08T04:13:20.615Z,25.50
2018-08-08T04:18:15.107Z,25.50
2018-08-08T04:23:14.340Z,25.40
2018-08-08T04:28:08.919Z,25.40
2018-08-08T04:33:03.447Z,25.40
2018-08-08T04:37:59.356Z,25.30
2018-08-08T04:42:53.852Z,25.10
2018-08-08T04:47:48.618Z,24.80
2018-08-08T04:52:43.612Z,24.50
2018-08-08T04:57:38.417Z,24.20
2018-08-08T05:02:33.117Z,23.90
2018-08-08T05:07:27.884Z,23.70
2018-08-08T05:12:22.954Z,23.50
2018-08-08T05:17:17.880Z,23.30
2018-08-08T05:22:12.636Z,23.20
2018-08-08T05:27:07.258Z,22.90
2018-08-08T05:32:01.833Z,22.60
2018-08-08T05:36:56.383Z,22.40
2018-08-08T05:41:51.733Z,22.40
2018-08-08T05:46:46.188Z,22.50
2018-08-08T05:51:40.812Z,22.60
2018-08-08T05:56:35.676Z,22.70
2018-08-08T06:01:30.862Z,22.90
2018-08-08T06:06:28.674Z,23.00
2018-08-08T06:11:23.514Z,23.10
2018-08-08T06:16:18.221Z,23.10
2018-08-08T06:21:13.082Z,23.20
2018-08-08T06:26:07.701Z,23.20
2018-08-08T06:31:02.347Z,23.20
2018-08-08T06:35:56.813Z,23.40
2018-08-08T06:40:51.628Z,23.60
2018-08-08T06:45:46.092Z,24.00
2018-08-08T06:50:40.957Z,24.40
2018-08-08T06:55:35.650Z,24.80
2018-08-08T07:00:31.521Z,25.50
2018-08-08T07:05:26.497Z,26.50
2018-08-08T07:10:21.505Z,27.50
2018-08-08T07:15:18.749Z,28.50
2018-08-08T07:20:15.358Z,30.40
2018-08-08T07:25:12.828Z,32.20
2018-08-08T07:30:12.478Z,32.50
2018-08-08T07:35:07.854Z,34.20
2018-08-08T07:40:03.356Z,35.80
2018-08-08T07:44:58.511Z,37.10
2018-08-08T07:49:54.001Z,36.40
2018-08-08T07:54:49.007Z,35.70
2018-08-08T07:59:43.724Z,35.30
2018-08-08T08:04:38.791Z,35.00
2018-08-08T08:09:33.488Z,34.20
2018-08-08T08:14:28.312Z,33.40
2018-08-08T08:19:23.400Z,33.40
2018-08-08T08:24:18.342Z,35.50
2018-08-08T08:29:13.401Z,39.30
2018-08-08T08:34:08.220Z,43.50
2018-08-08T08:39:04.014Z,46.50
2018-08-08T08:43:58.921Z,48.50
2018-08-08T08:48:54.467Z,50.70
2018-08-08T08:53:49.416Z,52.50
2018-08-08T08:58:44.281Z,53.30
2018-08-08T09:03:39.109Z,51.90
2018-08-08T09:08:33.864Z,50.50
2018-08-08T09:13:28.678Z,51.00
2018-08-08T09:18:23.474Z,50.40
2018-08-08T09:23:18.342Z,46.40
2018-08-08T09:28:13.081Z,44.50
2018-08-08T09:33:13.363Z,40.80
2018-08-08T09:38:08.834Z,39.20
2018-08-08T09:43:04.278Z,39.50
2018-08-08T09:47:59.670Z,43.10
2018-08-08T09:52:56.550Z,42.20
2018-08-08T09:57:51.491Z,39.30
2018-08-08T10:02:52.023Z,36.90
2018-08-08T10:07:46.831Z,35.80
2018-08-08T10:12:41.636Z,34.70
2018-08-08T10:17:36.348Z,33.70
2018-08-08T10:22:31.062Z,33.10
2018-08-08T10:27:26.367Z,32.60
2018-08-08T10:32:21.096Z,31.70
2018-08-08T10:37:15.806Z,31.30
2018-08-08T10:42:10.548Z,31.50
2018-08-08T10:47:05.346Z,31.80
2018-08-08T10:52:00.485Z,32.10
2018-08-08T10:56:55.340Z,32.10
2018-08-08T11:01:50.177Z,32.20
2018-08-08T11:06:45.014Z,32.00
2018-08-08T11:11:39.936Z,31.50
2018-08-08T11:16:34.837Z,30.90
2018-08-08T11:21:29.741Z,30.70
2018-08-08T11:26:24.670Z,30.70
2018-08-08T11:31:19.695Z,30.40
2018-08-08T11:36:14.650Z,30.10
2018-08-08T11:41:09.499Z,29.80
2018-08-08T11:46:04.280Z,29.70
2018-08-08T11:50:59.023Z,30.10
2018-08-08T11:55:54.193Z,30.40
2018-08-08T12:00:49.143Z,30.60
2018-08-08T12:05:43.872Z,30.70
2018-08-08T12:10:38.912Z,30.80
2018-08-08T12:15:33.876Z,31.20
2018-08-08T12:20:29.114Z,31.50
2018-08-08T12:25:23.921Z,31.40
2018-08-08T12:30:18.952Z,31.40
2018-08-08T12:35:13.983Z,31.60
2018-08-08T12:40:09.678Z,31.40
2018-08-08T12:45:05.344Z,31.20
2018-08-08T12:50:00.462Z,31.10
2018-08-08T12:54:55.392Z,30.90
2018-08-08T12:59:50.367Z,30.70
2018-08-08T13:04:45.115Z,30.60
2018-08-08T13:09:40.378Z,30.40
2018-08-08T13:14:35.096Z,30.40
2018-08-08T13:19:29.816Z,30.50
2018-08-08T13:24:24.606Z,30.50
2018-08-08T13:29:19.527Z,30.50
2018-08-08T13:34:14.226Z,30.50
2018-08-08T13:39:12.733Z,30.70
2018-08-08T13:44:08.453Z,30.60
2018-08-08T13:49:03.404Z,30.50
2018-08-08T13:53:58.418Z,30.40
2018-08-08T13:58:53.742Z,30.20
2018-08-08T14:03:48.692Z,30.30
2018-08-08T14:08:43.926Z,30.50
2018-08-08T14:13:38.777Z,30.40
2018-08-08T14:18:33.579Z,30.20
2018-08-08T14:23:29.081Z,29.90
2018-08-08T14:28:23.801Z,29.80
2018-08-08T14:33:18.556Z,29.80
2018-08-08T14:38:13.318Z,29.70
2018-08-08T14:43:08.417Z,29.70
2018-08-08T14:48:03.703Z,29.50
2018-08-08T14:52:58.481Z,29.60
2018-08-08T14:57:53.427Z,29.70
2018-08-08T15:02:48.610Z,29.70
2018-08-08T15:07:43.959Z,29.80
2018-08-08T15:12:38.770Z,29.80
2018-08-08T15:17:33.526Z,29.70
2018-08-08T15:22:29.025Z,29.50
2018-08-08T15:27:23.719Z,29.60
2018-08-08T15:32:18.574Z,29.60
2018-08-08T15:37:14.335Z,29.50
2018-08-08T15:42:09.301Z,29.30
2018-08-08T15:47:04.043Z,29.00
2018-08-08T15:51:58.751Z,28.80
2018-08-08T15:56:53.665Z,28.60
2018-08-08T16:01:48.638Z,28.40
2018-08-08T16:06:43.397Z,28.20
2018-08-08T16:11:38.373Z,28.10
2018-08-08T16:16:33.200Z,28.10
2018-08-08T16:21:28.394Z,28.10
2018-08-08T16:26:23.116Z,28.00
2018-08-08T16:31:18.146Z,27.80
2018-08-08T16:36:13.072Z,27.60
2018-08-08T16:41:08.174Z,27.50
2018-08-08T16:46:02.908Z,27.50
2018-08-08T16:50:57.661Z,27.40
2018-08-08T16:55:52.258Z,27.40
2018-08-08T17:00:47.221Z,27.30
2018-08-08T17:05:42.244Z,27.10
2018-08-08T17:10:37.214Z,27.00
2018-08-08T17:15:32.188Z,26.90
2018-08-08T17:20:27.225Z,26.80
2018-08-08T17:25:22.084Z,26.60
2018-08-08T17:30:16.818Z,26.50
2018-08-08T17:35:11.369Z,26.40
2018-08-08T17:40:06.304Z,26.30
2018-08-08T17:45:00.741Z,26.20
2018-08-08T17:49:55.220Z,26.00
2018-08-08T17:54:49.710Z,25.80
2018-08-08T17:59:44.192Z,25.80
2018-08-08T18:04:39.031Z,25.80
2018-08-08T18:09:33.865Z,25.50
2018-08-08T18:14:28.599Z,25.40
2018-08-08T18:19:23.285Z,25.30
2018-08-08T18:24:17.809Z,25.10
2018-08-08T18:29:12.366Z,24.90
2018-08-08T18:34:07.146Z,24.70
2018-08-08T18:39:01.632Z,24.60
2018-08-08T18:43:56.325Z,24.40
2018-08-08T18:48:51.170Z,24.30
2018-08-08T18:53:45.964Z,24.10
2018-08-08T18:58:40.603Z,24.00
2018-08-08T19:03:35.174Z,23.80
2018-08-08T19:08:30.701Z,23.70
2018-08-08T19:13:25.487Z,23.60
2018-08-08T19:18:20.681Z,23.40
2018-08-08T19:23:15.596Z,23.30
2018-08-08T19:28:10.666Z,23.20
2018-08-08T19:33:05.950Z,23.10
2018-08-08T19:38:00.558Z,22.90
2018-08-08T19:42:55.311Z,22.80
2018-08-08T19:47:49.783Z,22.70
2018-08-08T19:52:44.827Z,22.60
2018-08-08T19:57:39.442Z,22.60
2018-08-08T20:02:34.470Z,22.40
2018-08-08T20:07:28.949Z,22.30
2018-08-08T20:12:23.794Z,22.30
2018-08-08T20:17:18.290Z,22.40
2018-08-08T20:22:15.889Z,22.50
2018-08-08T20:27:10.378Z,22.60
2018-08-08T20:32:05.371Z,22.70
2018-08-08T20:36:59.875Z,22.60
2018-08-08T20:41:54.874Z,22.50
2018-08-08T20:46:49.469Z,22.40
2018-08-08T20:51:44.021Z,22.20
2018-08-08T20:56:38.600Z,22.10
2018-08-08T21:01:33.136Z,22.00
2018-08-08T21:06:27.677Z,21.80
2018-08-08T21:11:34.265Z,21.70
2018-08-08T21:16:28.776Z,21.60
2018-08-08T21:21:23.345Z,21.50
2018-08-08T21:26:17.926Z,21.50
2018-08-08T21:31:12.572Z,21.50
2018-08-08T21:36:08.154Z,21.60
2018-08-08T21:41:02.727Z,21.70
2018-08-08T21:45:57.159Z,21.90
2018-08-08T21:50:52.517Z,22.10
2018-08-08T21:56:04.216Z,22.20
2018-08-08T22:01:15.913Z,22.10
2018-08-08T22:06:27.657Z,21.90
2018-08-08T22:11:39.086Z,21.70
2018-08-08T22:17:52.400Z,21.60
2018-08-08T22:22:47.238Z,21.50
2018-08-08T22:27:41.664Z,21.30
2018-08-08T22:32:36.282Z,21.20
2018-08-08T22:37:30.751Z,21.10
2018-08-08T22:42:25.682Z,21.00
2018-08-08T22:47:20.163Z,20.90
2018-08-08T22:52:14.900Z,20.70
2018-08-08T22:57:09.591Z,20.60
2018-08-08T23:02:05.031Z,20.50
2018-08-08T23:06:59.743Z,20.50
2018-08-08T23:11:54.278Z,20.40
2018-08-08T23:16:48.960Z,20.30
2018-08-08T23:21:43.404Z,20.30
2018-08-08T23:26:37.927Z,20.20
2018-08-08T23:31:32.391Z,20.20
2018-08-08T23:36:27.130Z,20.10
2018-08-08T23:41:21.609Z,20.10
2018-08-08T23:46:16.080Z,20.00
2018-08-08T23:51:10.532Z,20.00
2018-08-08T23:56:05.257Z,19.90
